createdAt,value
2024-05-09T00:00:15.505Z,14.45
2024-05-09T00:01:26.517Z,17.50
2024-05-09T00:02:29.177Z,17.48
2024-05-09T00:03:34.622Z,17.13
2024-05-09T00:04:37.479Z,17.20
2024-05-09T00:05:44.323Z,17.92
2024-05-09T00:06:47.167Z,17.50
2024-05-09T00:07:52.422Z,17.27
2024-05-09T00:08:55.092Z,16.20
2024-05-09T00:10:00.316Z,17.23
2024-05-09T00:11:03.077Z,18.13
2024-05-09T00:12:09.039Z,18.25
2024-05-09T00:13:11.779Z,16.67
2024-05-09T00:14:17.339Z,18.27
2024-05-09T00:15:20.007Z,16.90
2024-05-09T00:16:27.852Z,17.38
2024-05-09T00:17:30.681Z,17.05
2024-05-09T00:18:36.141Z,18.48
2024-05-09T00:19:38.959Z,17.63
2024-05-09T00:20:44.386Z,17.15
2024-05-09T00:21:47.016Z,15.95
2024-05-09T00:22:52.732Z,16.92
2024-05-09T00:23:55.634Z,16.65
2024-05-09T00:25:00.886Z,17.00
2024-05-09T00:26:03.586Z,16.92
2024-05-09T00:27:11.287Z,18.05
2024-05-09T00:28:14.571Z,16.95
2024-05-09T00:29:19.843Z,16.83
2024-05-09T00:30:31.575Z,16.77
2024-05-09T00:31:43.027Z,17.25
2024-05-09T00:32:45.773Z,16.63
2024-05-09T00:33:51.224Z,17.80
2024-05-09T00:34:53.962Z,17.15
2024-05-09T00:35:59.190Z,16.55
2024-05-09T00:37:01.859Z,18.70
2024-05-09T00:38:07.572Z,17.92
2024-05-09T00:39:10.319Z,18.52
2024-05-09T00:40:22.962Z,19.40
2024-05-09T00:41:36.293Z,17.23
2024-05-09T00:42:39.177Z,21.00
2024-05-09T00:43:44.538Z,18.52
2024-05-09T00:44:47.155Z,18.75
2024-05-09T00:45:53.716Z,17.60
2024-05-09T00:46:59.218Z,18.67
2024-05-09T00:48:09.425Z,18.10
2024-05-09T00:49:13.788Z,18.75
2024-05-09T00:50:25.899Z,18.42
2024-05-09T00:51:36.769Z,20.27
2024-05-09T00:52:42.874Z,18.63
2024-05-09T00:53:46.449Z,19.50
2024-05-09T00:54:51.712Z,19.30
2024-05-09T00:55:57.645Z,19.25
2024-05-09T00:57:03.556Z,18.98
2024-05-09T00:58:08.038Z,19.65
2024-05-09T00:59:13.303Z,22.70
2024-05-09T01:00:26.083Z,20.15
2024-05-09T01:01:36.671Z,20.75
2024-05-09T01:02:42.030Z,19.23
2024-05-09T01:03:49.571Z,18.42
2024-05-09T01:04:53.633Z,18.67
2024-05-09T01:05:58.957Z,19.00
2024-05-09T01:07:01.653Z,21.05
2024-05-09T01:08:07.496Z,19.58
2024-05-09T01:09:10.393Z,18.67
2024-05-09T01:10:17.448Z,20.25
2024-05-09T01:11:36.798Z,19.50
2024-05-09T01:12:39.478Z,19.02
2024-05-09T01:13:44.972Z,19.55
2024-05-09T01:14:47.603Z,19.30
2024-05-09T01:15:54.028Z,19.02
2024-05-09T01:16:56.827Z,19.95
2024-05-09T01:18:07.640Z,19.17
2024-05-09T01:19:20.614Z,19.38
2024-05-09T01:20:36.875Z,18.75
2024-05-09T01:21:44.781Z,19.20
2024-05-09T01:22:50.908Z,20.05
2024-05-09T01:23:56.184Z,19.45
2024-05-09T01:25:01.416Z,19.83
2024-05-09T01:26:04.254Z,20.00
2024-05-09T01:27:09.497Z,19.92
2024-05-09T01:28:12.436Z,18.50
2024-05-09T01:29:17.952Z,18.63
2024-05-09T01:30:24.562Z,20.33
2024-05-09T01:31:36.596Z,18.95
2024-05-09T01:32:39.321Z,19.85
2024-05-09T01:33:45.167Z,18.75
2024-05-09T01:34:47.927Z,18.80
2024-05-09T01:35:53.272Z,20.25
2024-05-09T01:36:56.282Z,18.45
2024-05-09T01:38:01.588Z,19.42
2024-05-09T01:39:06.811Z,17.67
2024-05-09T01:40:18.414Z,18.52
2024-05-09T01:41:25.071Z,18.38
2024-05-09T01:42:30.348Z,18.80
2024-05-09T01:43:33.064Z,19.45
2024-05-09T01:44:38.388Z,18.33
2024-05-09T01:45:41.589Z,18.95
2024-05-09T01:46:46.980Z,18.63
2024-05-09T01:47:49.781Z,18.88
2024-05-09T01:48:55.208Z,18.70
2024-05-09T01:49:57.875Z,18.63
2024-05-09T01:51:03.207Z,18.83
2024-05-09T01:52:05.893Z,19.55
2024-05-09T01:53:11.713Z,20.52
2024-05-09T01:54:17.251Z,18.55
2024-05-09T01:55:22.653Z,19.05
2024-05-09T01:56:27.396Z,19.05
2024-05-09T01:57:33.365Z,18.98
2024-05-09T01:58:36.902Z,18.77
2024-05-09T01:59:42.106Z,19.90
2024-05-09T02:00:45.017Z,18.13
2024-05-09T02:01:56.732Z,19.05
2024-05-09T02:03:00.666Z,18.15
2024-05-09T02:04:06.387Z,19.27
2024-05-09T02:05:09.543Z,18.40
2024-05-09T02:06:15.023Z,19.40
2024-05-09T02:07:18.075Z,20.25
2024-05-09T02:08:24.546Z,19.42
2024-05-09T02:09:29.865Z,21.33
2024-05-09T02:10:35.108Z,18.27
2024-05-09T02:11:41.782Z,18.95
2024-05-09T02:12:47.119Z,19.25
2024-05-09T02:13:49.746Z,19.73
2024-05-09T02:14:55.065Z,20.30
2024-05-09T02:15:57.708Z,19.92
2024-05-09T02:17:02.966Z,18.42
2024-05-09T02:18:06.360Z,20.05
2024-05-09T02:19:11.900Z,20.02
2024-05-09T02:20:22.561Z,19.02
2024-05-09T02:21:34.251Z,19.02
2024-05-09T02:22:36.844Z,19.30
2024-05-09T02:23:42.081Z,18.23
2024-05-09T02:24:47.357Z,18.55
2024-05-09T02:25:52.589Z,20.40
2024-05-09T02:26:55.206Z,19.23
2024-05-09T02:28:00.634Z,19.15
2024-05-09T02:29:03.361Z,20.45
2024-05-09T02:30:18.570Z,19.05
2024-05-09T02:31:28.510Z,19.92
2024-05-09T02:32:33.859Z,19.13
2024-05-09T02:33:36.764Z,18.45
2024-05-09T02:34:39.507Z,20.48
2024-05-09T02:35:45.597Z,20.42
2024-05-09T02:36:48.245Z,22.48
2024-05-09T02:37:50.880Z,20.17
2024-05-09T02:38:56.070Z,18.85
2024-05-09T02:40:01.323Z,21.58
2024-05-09T02:41:04.257Z,19.92
2024-05-09T02:42:09.442Z,19.23
2024-05-09T02:43:13.062Z,20.27
2024-05-09T02:45:18.322Z,17.20
2024-05-09T02:46:20.997Z,19.75
2024-05-09T02:47:26.624Z,18.05
2024-05-09T02:48:29.541Z,31.05
2024-05-09T02:49:32.215Z,29.10
2024-05-09T02:50:39.700Z,32.15
2024-05-09T02:51:42.894Z,38.58
2024-05-09T02:52:45.570Z,32.10
2024-05-09T02:53:48.184Z,27.60
2024-05-09T02:54:51.058Z,27.35
2024-05-09T02:55:59.069Z,25.92
2024-05-09T02:57:01.720Z,23.95
2024-05-09T02:58:04.739Z,24.10
2024-05-09T02:59:10.262Z,22.05
2024-05-09T03:00:19.014Z,21.70
2024-05-09T03:01:28.599Z,19.10
2024-05-09T03:02:34.202Z,19.50
2024-05-09T03:03:37.237Z,18.58
2024-05-09T03:04:40.124Z,20.35
2024-05-09T03:05:43.142Z,19.65
2024-05-09T03:06:48.563Z,18.20
2024-05-09T03:07:51.215Z,19.40
2024-05-09T03:08:53.840Z,19.63
2024-05-09T03:09:56.422Z,18.83
2024-05-09T03:11:04.355Z,21.00
2024-05-09T03:12:08.445Z,18.08
2024-05-09T03:13:14.156Z,18.77
2024-05-09T03:14:18.173Z,18.00
2024-05-09T03:15:24.499Z,19.05
2024-05-09T03:16:27.271Z,19.13
2024-05-09T03:17:30.037Z,17.70
2024-05-09T03:18:35.500Z,18.55
2024-05-09T03:19:38.375Z,19.73
2024-05-09T03:20:41.180Z,19.08
2024-05-09T03:21:43.798Z,19.45
2024-05-09T03:22:49.036Z,20.00
2024-05-09T03:23:51.680Z,18.80
2024-05-09T03:24:54.489Z,18.70
2024-05-09T03:25:57.217Z,17.40
2024-05-09T03:27:05.165Z,18.20
2024-05-09T03:28:07.891Z,18.15
2024-05-09T03:29:10.667Z,19.17
2024-05-09T03:30:25.898Z,17.55
2024-05-09T03:32:41.175Z,17.10
2024-05-09T03:33:44.025Z,18.25
2024-05-09T03:34:46.764Z,18.92
2024-05-09T03:35:51.980Z,18.50
2024-05-09T03:36:57.206Z,19.75
2024-05-09T03:37:59.841Z,19.17
2024-05-09T03:39:05.186Z,19.05
2024-05-09T03:40:14.453Z,18.98
2024-05-09T03:41:23.374Z,17.85
2024-05-09T03:42:28.864Z,19.73
2024-05-09T03:43:34.165Z,19.40
2024-05-09T03:44:36.794Z,18.88
2024-05-09T03:45:39.457Z,18.90
2024-05-09T03:46:44.824Z,17.95
2024-05-09T03:47:47.572Z,19.95
2024-05-09T03:48:50.271Z,19.40
2024-05-09T03:49:52.901Z,19.08
2024-05-09T03:50:58.175Z,18.98
2024-05-09T03:52:05.043Z,18.92
2024-05-09T03:53:11.632Z,19.75
2024-05-09T03:54:16.954Z,18.15
2024-05-09T03:55:19.552Z,19.92
2024-05-09T03:56:22.267Z,18.40
2024-05-09T03:57:24.882Z,18.92
2024-05-09T03:58:33.075Z,18.67
2024-05-09T03:59:36.895Z,19.55
2024-05-09T04:00:40.385Z,18.98
2024-05-09T04:01:43.211Z,18.55
2024-05-09T04:02:50.743Z,20.23
2024-05-09T04:03:53.518Z,19.23
2024-05-09T04:04:56.212Z,19.73
2024-05-09T04:05:59.135Z,19.45
2024-05-09T04:07:04.821Z,18.67
2024-05-09T04:08:07.937Z,20.25
2024-05-09T04:09:10.556Z,18.10
2024-05-09T04:10:21.133Z,17.92
2024-05-09T04:11:33.358Z,17.92
2024-05-09T04:12:36.365Z,18.48
2024-05-09T04:13:41.613Z,20.65
2024-05-09T04:14:44.172Z,18.73
2024-05-09T04:15:49.364Z,18.30
2024-05-09T04:16:52.301Z,17.52
2024-05-09T04:17:55.151Z,19.08
2024-05-09T04:19:00.631Z,17.80
2024-05-09T04:20:03.403Z,17.90
2024-05-09T04:21:07.048Z,18.02
2024-05-09T04:22:10.087Z,18.10
2024-05-09T04:23:16.530Z,17.33
2024-05-09T04:24:19.586Z,16.92
2024-05-09T04:25:22.202Z,18.73
2024-05-09T04:26:24.826Z,17.50
2024-05-09T04:27:30.045Z,17.60
2024-05-09T04:28:32.709Z,17.02
2024-05-09T04:29:38.053Z,17.08
2024-05-09T04:30:41.812Z,16.05
2024-05-09T04:31:47.801Z,17.55
2024-05-09T04:32:51.057Z,16.52
2024-05-09T04:33:53.892Z,17.58
2024-05-09T04:34:56.670Z,16.77
2024-05-09T04:35:59.274Z,17.35
2024-05-09T04:37:04.623Z,16.52
2024-05-09T04:38:07.265Z,17.65
2024-05-09T04:39:09.878Z,18.55
2024-05-09T04:40:23.988Z,16.73
2024-05-09T04:41:33.660Z,15.95
2024-05-09T04:42:36.381Z,16.80
2024-05-09T04:43:41.689Z,16.08
2024-05-09T04:44:47.018Z,17.35
2024-05-09T04:45:51.160Z,16.25
2024-05-09T04:46:53.758Z,16.08
2024-05-09T04:47:59.221Z,16.77
2024-05-09T04:49:02.228Z,16.15
2024-05-09T04:50:08.870Z,16.80
2024-05-09T04:51:14.079Z,17.13
2024-05-09T04:52:19.402Z,16.35
2024-05-09T04:53:22.021Z,16.30
2024-05-09T04:54:33.725Z,15.48
2024-05-09T04:55:39.600Z,15.00
2024-05-09T04:56:45.227Z,16.02
2024-05-09T04:57:48.126Z,16.38
2024-05-09T05:01:01.712Z,15.18
2024-05-09T05:02:04.659Z,15.02
2024-05-09T05:03:10.528Z,15.43
2024-05-09T05:04:15.235Z,15.65
2024-05-09T05:05:20.649Z,15.18
2024-05-09T05:06:23.971Z,15.13
2024-05-09T05:07:26.525Z,14.57
2024-05-09T05:08:32.038Z,15.40
2024-05-09T05:09:35.892Z,14.98
2024-05-09T05:11:41.914Z,13.60
2024-05-09T05:13:03.147Z,14.88
2024-05-09T05:14:10.081Z,14.20
2024-05-09T05:15:15.526Z,14.75
2024-05-09T05:16:20.842Z,14.02
2024-05-09T05:17:23.562Z,13.90
2024-05-09T05:18:27.934Z,13.45
2024-05-09T05:19:31.170Z,13.90
2024-05-09T05:20:34.471Z,13.90
2024-05-09T05:21:39.802Z,13.77
2024-05-09T05:22:43.632Z,12.80
2024-05-09T05:23:46.252Z,13.80
2024-05-09T05:24:48.886Z,12.82
2024-05-09T05:25:55.948Z,13.63
2024-05-09T05:26:58.777Z,12.52
2024-05-09T05:28:01.326Z,13.55
2024-05-09T05:29:06.574Z,13.27
2024-05-09T05:30:17.506Z,12.80
2024-05-09T05:31:26.411Z,12.10
2024-05-09T05:32:29.182Z,12.55
2024-05-09T05:33:34.766Z,13.50
2024-05-09T05:34:37.468Z,11.95
2024-05-09T05:35:41.034Z,12.80
2024-05-09T05:36:46.286Z,12.68
2024-05-09T05:37:48.961Z,12.98
2024-05-09T05:38:52.236Z,11.63
2024-05-09T05:39:54.891Z,11.35
2024-05-09T05:41:00.188Z,12.63
2024-05-09T05:42:03.192Z,11.57
2024-05-09T05:43:06.256Z,11.35
2024-05-09T05:44:14.361Z,11.32
2024-05-09T05:45:17.240Z,13.32
2024-05-09T05:46:19.854Z,12.23
2024-05-09T05:47:25.225Z,11.73
2024-05-09T05:48:30.571Z,12.27
2024-05-09T05:49:33.350Z,12.23
2024-05-09T05:50:38.123Z,11.75
2024-05-09T05:51:41.434Z,12.07
2024-05-09T05:52:46.862Z,11.68
2024-05-09T05:53:49.611Z,12.18
2024-05-09T05:54:52.389Z,11.52
2024-05-09T05:55:55.166Z,11.20
2024-05-09T05:57:00.651Z,10.75
2024-05-09T05:58:03.815Z,10.68
2024-05-09T05:59:06.568Z,10.43
2024-05-09T06:00:15.230Z,11.00
2024-05-09T06:01:26.896Z,11.48
2024-05-09T06:02:33.009Z,10.30
2024-05-09T06:03:35.766Z,10.05
2024-05-09T06:04:41.087Z,10.55
2024-05-09T06:05:46.025Z,10.75
2024-05-09T06:06:49.546Z,9.85
2024-05-09T06:07:54.805Z,9.95
2024-05-09T06:08:57.425Z,9.85
2024-05-09T06:10:00.092Z,9.70
2024-05-09T06:11:03.668Z,10.50
2024-05-09T06:13:14.087Z,9.48
2024-05-09T06:14:17.326Z,10.55
2024-05-09T06:15:19.979Z,9.38
2024-05-09T06:16:25.170Z,10.27
2024-05-09T06:17:27.894Z,10.25
2024-05-09T06:18:33.507Z,9.35
2024-05-09T06:19:36.482Z,9.80
2024-05-09T06:20:43.611Z,9.55
2024-05-09T06:21:46.878Z,8.95
2024-05-09T06:22:49.553Z,9.32
2024-05-09T06:23:53.466Z,9.75
2024-05-09T06:24:58.719Z,9.48
2024-05-09T06:26:01.383Z,9.05
2024-05-09T06:27:06.182Z,9.60
2024-05-09T06:28:11.667Z,9.80
2024-05-09T06:29:14.347Z,11.10
2024-05-09T06:30:25.450Z,10.70
2024-05-09T06:31:35.774Z,9.40
2024-05-09T06:32:38.583Z,10.50
2024-05-09T06:33:44.543Z,10.90
2024-05-09T06:34:47.951Z,9.65
2024-05-09T06:35:57.216Z,9.93
2024-05-09T06:37:00.028Z,9.75
2024-05-09T06:38:02.771Z,11.52
2024-05-09T06:39:05.653Z,10.18
2024-05-09T06:40:12.574Z,10.00
2024-05-09T06:41:17.319Z,10.38
2024-05-09T06:42:20.091Z,10.18
2024-05-09T06:43:22.846Z,10.13
2024-05-09T06:44:28.187Z,10.10
2024-05-09T06:45:30.907Z,9.85
2024-05-09T06:46:33.549Z,10.52
2024-05-09T06:47:38.960Z,9.85
2024-05-09T06:48:44.977Z,11.30
2024-05-09T06:49:47.741Z,10.40
2024-05-09T06:50:51.074Z,9.98
2024-05-09T06:51:56.292Z,9.98
2024-05-09T06:52:58.912Z,11.20
2024-05-09T06:54:01.673Z,11.43
2024-05-09T06:55:04.506Z,11.52
2024-05-09T06:56:10.710Z,10.45
2024-05-09T06:57:13.381Z,10.48
2024-05-09T06:58:16.594Z,11.75
2024-05-09T06:59:19.574Z,11.13
2024-05-09T07:00:30.926Z,10.75
2024-05-09T07:01:40.941Z,10.60
2024-05-09T07:02:43.662Z,10.35
2024-05-09T07:03:51.701Z,10.68
2024-05-09T07:04:54.654Z,11.20
2024-05-09T07:05:57.373Z,10.77
2024-05-09T07:07:04.360Z,10.18
2024-05-09T07:08:07.729Z,10.60
2024-05-09T07:09:10.379Z,9.68
2024-05-09T07:10:22.037Z,10.43
2024-05-09T07:11:31.513Z,9.52
2024-05-09T07:12:34.580Z,10.90
2024-05-09T07:13:40.093Z,9.13
2024-05-09T07:14:42.802Z,10.07
2024-05-09T07:15:45.536Z,10.85
2024-05-09T07:16:48.706Z,11.18
2024-05-09T07:17:54.133Z,12.18
2024-05-09T07:18:59.659Z,10.73
2024-05-09T07:20:02.528Z,10.10
2024-05-09T07:21:08.927Z,10.05
2024-05-09T07:22:11.592Z,11.13
2024-05-09T07:23:14.759Z,9.30
2024-05-09T07:24:20.430Z,10.05
2024-05-09T07:25:23.002Z,9.10
2024-05-09T07:26:25.731Z,9.82
2024-05-09T07:27:28.378Z,10.15
2024-05-09T07:28:33.650Z,11.32
2024-05-09T07:29:38.450Z,9.80
2024-05-09T07:30:41.526Z,10.07
2024-05-09T07:31:46.749Z,10.98
2024-05-09T07:32:49.634Z,9.88
2024-05-09T07:33:52.600Z,10.45
2024-05-09T07:34:57.909Z,10.05
2024-05-09T07:36:03.200Z,9.85
2024-05-09T07:37:11.080Z,9.43
2024-05-09T07:38:14.053Z,9.77
2024-05-09T07:39:16.729Z,9.00
2024-05-09T07:40:31.557Z,10.10
2024-05-09T07:41:38.219Z,9.57
2024-05-09T07:42:40.911Z,10.35
2024-05-09T07:43:46.622Z,10.68
2024-05-09T07:44:49.223Z,9.48
2024-05-09T07:45:54.464Z,8.95
2024-05-09T07:50:55.720Z,9.50
2024-05-09T07:53:16.931Z,8.93
2024-05-09T07:53:37.207Z,9.48
2024-05-09T07:54:35.297Z,9.05
2024-05-09T07:55:38.181Z,9.45
2024-05-09T07:56:41.044Z,9.45
2024-05-09T07:57:46.558Z,8.68
2024-05-09T07:58:50.794Z,8.88
2024-05-09T07:59:53.561Z,8.95
2024-05-09T08:00:56.433Z,8.90
2024-05-09T08:02:01.893Z,9.82
2024-05-09T08:03:05.116Z,9.27
2024-05-09T08:04:07.913Z,8.93
2024-05-09T08:05:13.285Z,9.70
2024-05-09T08:06:18.774Z,8.55
2024-05-09T08:07:22.089Z,10.93
2024-05-09T08:08:27.668Z,10.95
2024-05-09T08:09:30.269Z,10.45
2024-05-09T08:10:35.144Z,8.98
2024-05-09T08:11:37.895Z,9.95
2024-05-09T08:12:43.253Z,9.93
2024-05-09T08:13:45.859Z,9.32
2024-05-09T08:14:48.427Z,8.95
2024-05-09T08:15:54.076Z,8.88
2024-05-09T08:16:56.943Z,9.00
2024-05-09T08:18:00.171Z,9.60
2024-05-09T08:19:05.870Z,9.20
2024-05-09T08:20:09.848Z,9.23
2024-05-09T08:21:13.928Z,9.25
2024-05-09T08:22:21.783Z,8.25
2024-05-09T08:23:24.431Z,8.88
2024-05-09T08:24:27.479Z,9.05
2024-05-09T08:25:30.050Z,8.65
2024-05-09T08:26:35.322Z,9.77
2024-05-09T08:27:38.020Z,9.32
2024-05-09T08:28:40.655Z,10.18
2024-05-09T08:29:43.662Z,9.80
2024-05-09T08:30:49.107Z,8.80
2024-05-09T08:31:56.200Z,9.30
2024-05-09T08:32:59.104Z,9.63
2024-05-09T08:34:02.012Z,10.18
2024-05-09T08:35:07.949Z,9.95
2024-05-09T08:36:10.491Z,9.73
2024-05-09T08:37:19.699Z,9.70
2024-05-09T08:38:30.383Z,9.38
2024-05-09T08:39:33.162Z,9.32
2024-05-09T08:40:37.927Z,8.82
2024-05-09T08:41:43.371Z,10.10
2024-05-09T08:42:53.278Z,9.18
2024-05-09T08:43:55.918Z,9.00
2024-05-09T08:44:58.548Z,9.18
2024-05-09T08:46:02.767Z,9.30
2024-05-09T08:47:09.911Z,9.48
2024-05-09T08:48:14.969Z,9.35
2024-05-09T08:49:18.996Z,9.73
2024-05-09T08:50:32.327Z,10.35
2024-05-09T08:51:40.987Z,9.27
2024-05-09T08:52:43.776Z,9.82
2024-05-09T08:53:51.685Z,8.73
2024-05-09T08:54:54.873Z,8.57
2024-05-09T08:56:01.550Z,8.88
2024-05-09T08:57:05.698Z,8.57
2024-05-09T08:58:13.852Z,9.38
2024-05-09T08:59:21.419Z,9.10
2024-05-09T09:00:33.761Z,9.20
2024-05-09T09:01:44.512Z,8.35
2024-05-09T09:02:50.043Z,8.93
2024-05-09T09:03:53.672Z,7.97
2024-05-09T09:05:01.009Z,9.55
2024-05-09T09:06:10.123Z,8.73
2024-05-09T09:07:13.470Z,8.07
2024-05-09T09:08:17.180Z,7.57
2024-05-09T09:09:22.479Z,8.75
2024-05-09T09:10:32.071Z,8.65
2024-05-09T09:11:35.854Z,7.93
2024-05-09T09:12:38.653Z,8.75
2024-05-09T09:13:41.322Z,8.35
2024-05-09T09:14:46.708Z,8.65
2024-05-09T09:15:50.312Z,8.07
2024-05-09T09:16:54.200Z,7.38
2024-05-09T09:17:57.832Z,8.52
2024-05-09T09:19:03.537Z,7.65
2024-05-09T09:20:13.967Z,7.35
2024-05-09T09:21:19.029Z,7.55
2024-05-09T09:22:24.363Z,8.07
2024-05-09T09:23:30.224Z,7.90
2024-05-09T09:24:35.783Z,6.93
2024-05-09T09:25:40.066Z,6.50
2024-05-09T09:26:48.058Z,6.22
2024-05-09T09:27:50.833Z,7.35
2024-05-09T09:28:53.521Z,6.40
2024-05-09T09:29:59.929Z,6.43
2024-05-09T09:31:03.211Z,5.97
2024-05-09T09:32:08.581Z,6.45
2024-05-09T09:33:12.193Z,6.57
2024-05-09T09:34:17.794Z,6.60
2024-05-09T09:35:20.595Z,6.93
2024-05-09T09:36:23.159Z,6.07
2024-05-09T09:37:29.853Z,6.55
2024-05-09T09:38:32.592Z,6.95
2024-05-09T09:39:48.961Z,6.18
2024-05-09T09:40:52.230Z,6.40
2024-05-09T09:41:56.862Z,6.85
2024-05-09T09:43:04.707Z,6.22
2024-05-09T09:44:09.648Z,5.80
2024-05-09T09:45:13.994Z,6.70
2024-05-09T09:46:18.787Z,7.32
2024-05-09T09:47:24.902Z,6.75
2024-05-09T09:48:28.497Z,6.40
2024-05-09T09:49:33.767Z,6.65
2024-05-09T09:50:36.790Z,7.43
2024-05-09T09:51:43.742Z,6.60
2024-05-09T09:52:47.149Z,7.30
2024-05-09T09:53:53.110Z,6.97
2024-05-09T09:54:59.910Z,6.28
2024-05-09T09:56:06.383Z,5.95
2024-05-09T09:57:09.170Z,7.13
2024-05-09T09:58:14.387Z,7.45
2024-05-09T09:59:20.350Z,6.93
2024-05-09T10:00:29.960Z,7.63
2024-05-09T10:01:36.445Z,7.03
2024-05-09T10:02:40.357Z,6.28
2024-05-09T10:03:46.061Z,6.63
2024-05-09T10:04:49.092Z,6.72
2024-05-09T10:05:52.612Z,6.40
2024-05-09T10:07:08.365Z,7.32
2024-05-09T10:08:14.858Z,5.90
2024-05-09T10:09:18.314Z,6.20
2024-05-09T10:10:32.032Z,6.20
2024-05-09T10:11:42.075Z,5.85
2024-05-09T10:13:01.693Z,6.10
2024-05-09T10:14:04.411Z,6.50
2024-05-09T10:15:09.147Z,6.97
2024-05-09T10:16:15.038Z,6.43
2024-05-09T10:17:18.158Z,6.60
2024-05-09T10:18:27.121Z,5.82
2024-05-09T10:19:35.357Z,6.65
2024-05-09T10:20:42.406Z,6.55
2024-05-09T10:21:47.298Z,6.03
2024-05-09T10:22:53.087Z,5.63
2024-05-09T10:23:59.855Z,6.18
2024-05-09T10:25:06.965Z,5.88
2024-05-09T10:26:12.218Z,5.78
2024-05-09T10:27:17.647Z,5.60
2024-05-09T10:28:21.023Z,5.68
2024-05-09T10:29:26.348Z,5.72
2024-05-09T10:30:36.085Z,5.50
2024-05-09T10:31:42.441Z,5.97
2024-05-09T10:32:45.612Z,5.68
2024-05-09T10:33:50.206Z,5.05
2024-05-09T10:35:03.375Z,6.20
2024-05-09T10:36:12.070Z,5.57
2024-05-09T10:37:15.184Z,6.22
2024-05-09T10:38:18.710Z,6.85
2024-05-09T10:39:24.636Z,6.65
2024-05-09T10:40:31.351Z,5.75
2024-05-09T10:41:38.581Z,5.95
2024-05-09T10:42:44.468Z,6.38
2024-05-09T10:43:47.732Z,6.72
2024-05-09T10:44:50.407Z,6.57
2024-05-09T10:45:53.109Z,6.35
2024-05-09T10:46:58.599Z,7.10
2024-05-09T10:48:01.488Z,7.00
2024-05-09T10:49:07.243Z,6.55
2024-05-09T10:50:18.528Z,6.13
2024-05-09T10:51:31.061Z,5.90
2024-05-09T10:52:35.320Z,5.93
2024-05-09T10:53:42.370Z,5.13
2024-05-09T10:54:49.010Z,5.10
2024-05-09T10:56:00.506Z,5.47
2024-05-09T10:57:06.500Z,5.72
2024-05-09T10:58:18.484Z,6.53
2024-05-09T10:59:23.706Z,6.05
2024-05-09T11:00:35.740Z,6.00
2024-05-09T11:01:40.268Z,5.78
2024-05-09T11:02:44.180Z,5.53
2024-05-09T11:03:50.562Z,6.13
2024-05-09T11:04:53.618Z,5.38
2024-05-09T11:05:56.726Z,5.38
2024-05-09T11:07:02.827Z,5.43
2024-05-09T11:08:09.674Z,5.20
2024-05-09T11:09:12.596Z,5.38
2024-05-09T11:10:21.005Z,4.63
2024-05-09T11:11:32.895Z,4.90
2024-05-09T11:12:38.625Z,4.70
2024-05-09T11:13:41.690Z,5.10
2024-05-09T11:14:56.085Z,4.40
2024-05-09T11:16:00.190Z,5.10
2024-05-09T11:17:06.123Z,4.88
2024-05-09T11:18:23.616Z,4.82
2024-05-09T11:19:33.597Z,4.45
2024-05-09T11:20:36.778Z,4.55
2024-05-09T11:21:40.006Z,4.28
2024-05-09T11:22:46.517Z,4.78
2024-05-09T11:23:49.698Z,4.32
2024-05-09T11:24:52.624Z,4.65
2024-05-09T11:25:56.967Z,4.13
2024-05-09T11:27:02.938Z,4.03
2024-05-09T11:28:08.452Z,4.28
2024-05-09T11:29:11.110Z,4.38
2024-05-09T11:30:26.741Z,4.78
2024-05-09T11:31:47.791Z,4.50
2024-05-09T11:32:50.709Z,4.53
2024-05-09T11:33:55.078Z,4.60
2024-05-09T11:34:57.801Z,3.67
2024-05-09T11:36:03.072Z,5.00
2024-05-09T11:37:05.915Z,4.50
2024-05-09T11:38:08.614Z,4.00
2024-05-09T11:39:11.758Z,4.15
2024-05-09T11:40:24.845Z,5.07
2024-05-09T11:41:31.456Z,4.05
2024-05-09T11:42:34.111Z,3.63
2024-05-09T11:43:39.325Z,4.40
2024-05-09T11:44:44.516Z,4.45
2024-05-09T11:45:47.225Z,4.50
2024-05-09T11:46:49.930Z,5.00
2024-05-09T11:47:53.268Z,4.30
2024-05-09T11:48:58.749Z,5.45
2024-05-09T11:50:01.679Z,4.85
2024-05-09T11:51:04.778Z,5.40
2024-05-09T11:52:10.367Z,4.28
2024-05-09T11:53:13.226Z,4.40
2024-05-09T11:54:16.532Z,4.65
2024-05-09T11:55:26.728Z,4.90
2024-05-09T11:56:30.465Z,4.88
2024-05-09T11:57:33.312Z,4.70
2024-05-09T11:58:39.423Z,4.47
2024-05-09T11:59:47.270Z,4.07
2024-05-09T12:00:50.149Z,5.07
2024-05-09T12:01:53.028Z,4.35
2024-05-09T12:02:58.881Z,4.32
2024-05-09T12:04:04.344Z,3.80
2024-05-09T12:05:07.453Z,4.35
2024-05-09T12:06:10.229Z,4.10
2024-05-09T12:07:13.159Z,4.00
2024-05-09T12:08:18.467Z,4.25
2024-05-09T12:09:21.126Z,4.30
2024-05-09T12:11:28.634Z,4.10
2024-05-09T12:12:36.720Z,3.70
2024-05-09T12:13:39.879Z,4.88
2024-05-09T12:14:45.164Z,4.53
2024-05-09T12:15:47.826Z,4.50
2024-05-09T12:16:53.214Z,4.75
2024-05-09T12:17:58.387Z,4.18
2024-05-09T12:19:03.097Z,4.50
2024-05-09T12:20:11.346Z,4.15
2024-05-09T12:21:22.434Z,4.32
2024-05-09T12:22:25.138Z,4.70
2024-05-09T12:23:27.934Z,4.43
2024-05-09T12:24:30.883Z,4.30
2024-05-09T12:25:36.204Z,4.05
2024-05-09T12:26:38.833Z,4.50
2024-05-09T12:27:41.521Z,4.03
2024-05-09T12:28:44.236Z,5.85
2024-05-09T12:29:52.161Z,4.13
2024-05-09T12:30:54.830Z,4.70
2024-05-09T12:31:58.168Z,5.10
2024-05-09T12:33:01.826Z,4.47
2024-05-09T12:34:07.863Z,3.97
2024-05-09T12:35:10.563Z,4.88
2024-05-09T12:36:13.391Z,4.75
2024-05-09T12:37:16.242Z,5.43
2024-05-09T12:38:21.912Z,5.35
2024-05-09T12:39:24.558Z,5.22
2024-05-09T12:40:35.404Z,4.70
2024-05-09T12:41:43.337Z,4.50
2024-05-09T12:42:45.954Z,4.45
2024-05-09T12:43:49.661Z,4.30
2024-05-09T12:44:57.508Z,4.07
2024-05-09T12:46:00.217Z,4.35
2024-05-09T12:47:03.028Z,4.53
2024-05-09T12:48:08.499Z,4.00
2024-05-09T12:49:16.385Z,4.10
2024-05-09T12:50:29.157Z,3.78
2024-05-09T12:51:34.782Z,3.28
2024-05-09T12:52:37.380Z,3.65
2024-05-09T12:53:42.719Z,3.20
2024-05-09T12:54:45.381Z,3.45
2024-05-09T12:55:53.989Z,3.10
2024-05-09T12:57:02.382Z,3.35
2024-05-09T12:58:08.849Z,3.85
2024-05-09T12:59:11.695Z,3.60
2024-05-09T13:00:23.980Z,3.45
2024-05-09T13:01:36.398Z,3.03
2024-05-09T13:02:39.152Z,3.08
2024-05-09T13:03:42.039Z,3.05
2024-05-09T13:04:44.930Z,2.70
2024-05-09T13:05:50.533Z,2.85
2024-05-09T13:06:53.681Z,2.58
2024-05-09T13:07:57.153Z,2.60
2024-05-09T13:09:00.103Z,2.80
2024-05-09T13:10:06.982Z,2.92
2024-05-09T13:11:14.346Z,2.75
2024-05-09T13:12:16.948Z,3.15
2024-05-09T13:13:19.829Z,3.15
2024-05-09T13:14:25.272Z,2.88
2024-05-09T13:15:31.145Z,2.97
2024-05-09T13:16:34.229Z,2.90
2024-05-09T13:17:37.005Z,2.70
2024-05-09T13:18:42.393Z,2.70
2024-05-09T13:19:45.010Z,2.97
2024-05-09T13:20:47.651Z,3.00
2024-05-09T13:21:53.031Z,3.25
2024-05-09T13:22:55.794Z,2.75
2024-05-09T13:24:00.015Z,2.65
2024-05-09T13:25:03.120Z,2.63
2024-05-09T13:26:08.502Z,2.65
2024-05-09T13:27:11.236Z,2.95
2024-05-09T13:28:14.060Z,3.33
2024-05-09T13:29:16.684Z,3.65
2024-05-09T13:30:29.489Z,3.28
2024-05-09T13:31:43.683Z,2.80
2024-05-09T13:32:46.429Z,3.00
2024-05-09T13:33:51.853Z,3.50
2024-05-09T13:34:54.611Z,3.08
2024-05-09T13:35:57.379Z,3.22
2024-05-09T13:37:00.068Z,3.90
2024-05-09T13:38:05.543Z,3.72
2024-05-09T13:39:08.173Z,3.10
2024-05-09T13:40:14.221Z,3.10
2024-05-09T13:41:17.828Z,3.00
2024-05-09T13:42:23.261Z,3.50
2024-05-09T13:43:26.228Z,2.97
2024-05-09T13:44:28.833Z,3.65
2024-05-09T13:45:31.543Z,3.38
2024-05-09T13:46:37.196Z,3.60
2024-05-09T13:47:42.730Z,3.33
2024-05-09T13:48:45.642Z,3.80
2024-05-09T13:49:48.904Z,3.13
2024-05-09T13:50:54.656Z,3.03
2024-05-09T13:51:57.413Z,2.95
2024-05-09T13:53:00.049Z,3.42
2024-05-09T13:54:05.314Z,2.85
2024-05-09T13:55:08.403Z,3.30
2024-05-09T13:56:11.979Z,3.10
2024-05-09T13:57:17.917Z,2.65
2024-05-09T13:58:20.769Z,2.90
2024-05-09T13:59:23.418Z,3.08
2024-05-09T14:00:38.183Z,3.00
2024-05-09T14:01:50.096Z,2.80
2024-05-09T14:02:55.549Z,3.30
2024-05-09T14:03:58.478Z,2.90
2024-05-09T14:05:04.026Z,2.92
2024-05-09T14:06:09.428Z,2.40
2024-05-09T14:07:13.851Z,2.65
2024-05-09T14:08:19.480Z,3.17
2024-05-09T14:09:25.203Z,2.92
2024-05-09T14:10:31.171Z,2.90
2024-05-09T14:11:34.893Z,2.92
2024-05-09T14:12:40.145Z,2.47
2024-05-09T14:13:42.778Z,2.70
2024-05-09T14:14:45.379Z,3.63
2024-05-09T14:15:48.208Z,2.88
2024-05-09T14:16:53.589Z,2.60
2024-05-09T14:17:58.908Z,2.72
2024-05-09T14:19:24.000Z,3.13
2024-05-09T14:20:32.888Z,2.88
2024-05-09T14:21:35.564Z,2.85
2024-05-09T14:22:38.192Z,2.75
2024-05-09T14:23:40.865Z,2.60
2024-05-09T14:24:46.069Z,2.67